createdAt,value
2018-07-14T00:00:17.941Z,19.60
2018-07-14T00:02:46.090Z,19.60
2018-07-14T00:05:14.234Z,19.60
2018-07-14T00:07:42.572Z,19.60
2018-07-14T00:10:10.728Z,19.60
2018-07-14T00:12:38.871Z,19.60
2018-07-14T00:15:07.041Z,19.60
2018-07-14T00:17:35.200Z,19.50
2018-07-14T00:20:04.063Z,19.50
2018-07-14T00:22:32.699Z,19.60
2018-07-14T00:25:00.866Z,19.60
2018-07-14T00:27:29.071Z,19.60
2018-07-14T00:29:57.242Z,19.60
2018-07-14T00:32:25.386Z,19.60
2018-07-14T00:34:53.520Z,19.60
2018-07-14T00:37:21.676Z,19.60
2018-07-14T00:39:49.811Z,19.60
2018-07-14T00:42:17.973Z,19.60
2018-07-14T00:44:46.176Z,19.60
2018-07-14T00:47:14.329Z,19.60
2018-07-14T00:49:42.479Z,19.60
2018-07-14T00:52:10.612Z,19.60
2018-07-14T00:54:38.743Z,19.60
2018-07-14T00:57:06.885Z,19.60
2018-07-14T00:59:35.037Z,19.60
2018-07-14T01:02:03.180Z,19.60
2018-07-14T01:04:31.337Z,19.60
2018-07-14T01:09:27.444Z,19.60
2018-07-14T01:11:55.648Z,19.50
2018-07-14T01:14:23.776Z,19.40
2018-07-14T01:16:51.989Z,19.40
2018-07-14T01:19:20.214Z,19.40
2018-07-14T01:21:48.344Z,19.30
2018-07-14T01:24:16.522Z,19.40
2018-07-14T01:26:44.937Z,19.30
2018-07-14T01:29:14.209Z,19.30
2018-07-14T01:31:42.683Z,19.30
2018-07-14T01:34:10.867Z,19.30
2018-07-14T01:36:39.085Z,19.30
2018-07-14T01:39:07.955Z,19.30
2018-07-14T01:41:36.182Z,19.30
2018-07-14T01:44:04.321Z,19.30
2018-07-14T01:46:32.516Z,19.30
2018-07-14T01:49:00.678Z,19.30
2018-07-14T01:51:28.845Z,19.30
2018-07-14T01:53:57.036Z,19.30
2018-07-14T01:56:25.176Z,19.30
2018-07-14T01:58:53.360Z,19.30
2018-07-14T02:01:21.508Z,19.30
2018-07-14T02:03:49.648Z,19.40
2018-07-14T02:06:18.302Z,19.30
2018-07-14T02:08:46.456Z,19.30
2018-07-14T02:11:15.418Z,19.30
2018-07-14T02:13:43.599Z,19.30
2018-07-14T02:16:11.748Z,19.30
2018-07-14T02:18:39.905Z,19.30
2018-07-14T02:21:08.057Z,19.30
2018-07-14T02:23:36.208Z,19.30
2018-07-14T02:26:04.371Z,19.30
2018-07-14T02:28:32.543Z,19.30
2018-07-14T02:31:00.688Z,19.30
2018-07-14T02:33:28.976Z,19.30
2018-07-14T02:35:57.155Z,19.30
2018-07-14T02:38:25.318Z,19.20
2018-07-14T02:40:53.543Z,19.20
2018-07-14T02:43:21.713Z,19.20
2018-07-14T02:45:49.856Z,19.10
2018-07-14T02:48:18.018Z,19.10
2018-07-14T02:50:46.544Z,19.10
2018-07-14T02:53:14.677Z,19.10
2018-07-14T02:55:42.849Z,19.20
2018-07-14T02:58:11.111Z,19.10
2018-07-14T03:00:39.265Z,19.20
2018-07-14T03:03:07.458Z,19.20
2018-07-14T03:05:35.624Z,19.10
2018-07-14T03:08:03.757Z,19.10
2018-07-14T03:10:31.908Z,19.10
2018-07-14T03:13:00.224Z,19.20
2018-07-14T03:15:28.344Z,19.20
2018-07-14T03:17:56.535Z,19.20
2018-07-14T03:20:24.672Z,19.20
2018-07-14T03:22:52.832Z,19.20
2018-07-14T03:25:21.012Z,19.20
2018-07-14T03:27:49.212Z,19.20
2018-07-14T03:30:17.368Z,19.20
2018-07-14T03:32:45.556Z,19.10
2018-07-14T03:35:13.803Z,19.20
2018-07-14T03:37:41.929Z,19.20
2018-07-14T03:40:10.092Z,19.10
2018-07-14T03:42:38.238Z,19.10
2018-07-14T03:45:06.744Z,19.20
2018-07-14T03:47:34.976Z,19.10
2018-07-14T03:50:03.117Z,19.10
2018-07-14T03:52:31.265Z,19.20
2018-07-14T03:54:59.453Z,19.20
2018-07-14T03:57:27.648Z,19.20
2018-07-14T03:59:55.833Z,19.20
2018-07-14T04:02:24.019Z,19.20
2018-07-14T04:04:52.224Z,19.20
2018-07-14T04:07:20.360Z,19.30
2018-07-14T04:09:48.537Z,19.30
2018-07-14T04:12:16.698Z,19.30
2018-07-14T04:14:44.920Z,19.30
2018-07-14T04:17:12.998Z,19.30
2018-07-14T04:19:41.119Z,19.30
2018-07-14T04:22:09.243Z,19.30
2018-07-14T04:24:37.388Z,19.30
2018-07-14T04:27:05.576Z,19.30
2018-07-14T04:29:33.712Z,19.30
2018-07-14T04:32:01.975Z,19.20
2018-07-14T04:34:30.035Z,19.30
2018-07-14T04:36:58.293Z,19.20
2018-07-14T04:39:26.457Z,19.20
2018-07-14T04:41:54.676Z,19.30
2018-07-14T04:44:22.824Z,19.30
2018-07-14T04:46:50.999Z,19.30
2018-07-14T04:49:19.139Z,19.20
2018-07-14T04:51:47.335Z,19.20
2018-07-14T04:54:15.492Z,19.10
2018-07-14T04:56:43.638Z,19.10
2018-07-14T04:59:11.751Z,19.10
2018-07-14T05:01:39.903Z,19.10
2018-07-14T05:04:08.056Z,19.10
2018-07-14T05:06:36.204Z,19.10
2018-07-14T05:09:05.207Z,19.10
2018-07-14T05:11:33.359Z,19.10
2018-07-14T05:14:01.561Z,19.20
2018-07-14T05:16:29.732Z,19.20
2018-07-14T05:18:57.944Z,19.30
2018-07-14T05:21:26.182Z,19.40
2018-07-14T05:23:54.297Z,19.40
2018-07-14T05:26:22.473Z,19.40
2018-07-14T05:28:50.674Z,19.40
2018-07-14T05:31:18.830Z,19.40
2018-07-14T05:36:15.027Z,19.40
2018-07-14T05:38:43.163Z,19.50
2018-07-14T05:41:11.331Z,19.60
2018-07-14T05:43:39.495Z,19.60
2018-07-14T05:46:07.632Z,19.50
2018-07-14T05:48:35.788Z,19.50
2018-07-14T05:51:03.932Z,19.50
2018-07-14T05:53:32.092Z,19.50
2018-07-14T05:56:00.304Z,19.50
2018-07-14T05:58:28.486Z,19.40
2018-07-14T06:00:56.640Z,19.40
2018-07-14T06:03:24.796Z,19.50
2018-07-14T06:05:52.946Z,19.60
2018-07-14T06:08:21.288Z,19.60
2018-07-14T06:10:49.436Z,19.50
2018-07-14T06:13:17.600Z,19.50
2018-07-14T06:15:45.878Z,19.50
2018-07-14T06:20:41.995Z,19.50
2018-07-14T06:23:10.124Z,19.60
2018-07-14T06:25:38.272Z,19.60
2018-07-14T06:28:06.434Z,19.60
2018-07-14T06:30:34.679Z,19.60
2018-07-14T06:33:02.853Z,19.60
2018-07-14T06:35:31.077Z,19.70
2018-07-14T06:37:59.264Z,19.80
2018-07-14T06:42:55.377Z,20.00
2018-07-14T06:45:23.540Z,20.00
2018-07-14T06:47:51.737Z,20.10
2018-07-14T06:50:19.909Z,20.20
2018-07-14T06:52:48.067Z,20.30
2018-07-14T06:55:16.246Z,20.30
2018-07-14T06:57:44.428Z,20.50
2018-07-14T07:00:18.329Z,20.50
2018-07-14T07:02:46.479Z,20.50
2018-07-14T07:05:14.645Z,20.50
2018-07-14T07:07:42.768Z,20.50
2018-07-14T07:10:10.938Z,20.50
2018-07-14T07:12:39.251Z,20.50
2018-07-14T07:15:07.466Z,20.70
2018-07-14T07:17:35.720Z,20.70
2018-07-14T07:20:03.898Z,20.80
2018-07-14T07:22:32.020Z,20.80
2018-07-14T07:25:00.197Z,20.90
2018-07-14T07:27:28.337Z,21.00
2018-07-14T07:29:56.496Z,21.10
2018-07-14T07:32:24.816Z,21.10
2018-07-14T07:34:53.073Z,21.20
2018-07-14T07:37:21.260Z,21.20
2018-07-14T07:39:49.436Z,21.30
2018-07-14T07:42:17.634Z,21.40
2018-07-14T07:44:45.900Z,21.40
2018-07-14T07:47:14.063Z,21.50
2018-07-14T07:49:42.219Z,21.60
2018-07-14T07:52:10.366Z,21.60
2018-07-14T07:54:38.785Z,21.60
2018-07-14T07:57:06.949Z,21.60
2018-07-14T07:59:35.087Z,21.60
2018-07-14T08:02:03.268Z,21.70
2018-07-14T08:04:31.403Z,21.70
2018-07-14T08:06:59.537Z,21.70
2018-07-14T08:09:28.165Z,21.80
2018-07-14T08:11:56.507Z,21.90
2018-07-14T08:16:52.622Z,22.10
2018-07-14T08:19:20.767Z,22.10
2018-07-14T08:21:48.912Z,22.10
2018-07-14T08:24:17.086Z,22.10
2018-07-14T08:26:45.292Z,22.10
2018-07-14T08:29:13.509Z,22.20
2018-07-14T08:31:41.652Z,22.20
2018-07-14T08:34:09.837Z,22.20
2018-07-14T08:36:38.011Z,22.40
2018-07-14T08:39:06.864Z,22.50
2018-07-14T08:41:35.041Z,22.50
2018-07-14T08:44:03.206Z,22.60
2018-07-14T08:46:31.360Z,22.50
2018-07-14T08:48:59.573Z,22.50
2018-07-14T08:51:28.045Z,22.60
2018-07-14T08:53:56.194Z,22.80
2018-07-14T08:56:24.365Z,22.80
2018-07-14T08:58:52.495Z,22.80
2018-07-14T09:01:20.651Z,22.90
2018-07-14T09:03:48.800Z,23.00
2018-07-14T09:06:16.946Z,22.90
2018-07-14T09:08:45.096Z,23.00
2018-07-14T09:11:13.242Z,23.00
2018-07-14T09:13:41.396Z,23.10
2018-07-14T09:16:09.560Z,23.10
2018-07-14T09:18:37.737Z,23.10
2018-07-14T09:21:06.097Z,23.30
2018-07-14T09:23:34.272Z,23.30
2018-07-14T09:26:02.506Z,23.30
2018-07-14T09:28:30.640Z,23.40
2018-07-14T09:30:58.786Z,23.40
2018-07-14T09:33:26.932Z,23.40
2018-07-14T09:35:55.096Z,23.50
2018-07-14T09:38:23.252Z,23.70
2018-07-14T09:40:51.390Z,23.60
2018-07-14T09:43:19.591Z,23.50
2018-07-14T09:45:47.740Z,23.40
2018-07-14T09:48:15.927Z,23.50
2018-07-14T09:50:44.088Z,23.50
2018-07-14T09:53:12.269Z,23.60
2018-07-14T09:55:40.434Z,23.80
2018-07-14T09:58:08.569Z,23.80
2018-07-14T10:00:40.963Z,23.80
2018-07-14T10:03:09.117Z,23.90
2018-07-14T10:05:37.260Z,24.00
2018-07-14T10:08:05.685Z,24.10
2018-07-14T10:10:33.848Z,24.20
2018-07-14T10:13:02.160Z,24.30
2018-07-14T10:15:30.319Z,24.60
2018-07-14T10:17:58.698Z,24.50
2018-07-14T10:20:26.824Z,24.60
2018-07-14T10:22:54.976Z,24.60
2018-07-14T10:25:23.230Z,24.50
2018-07-14T10:27:51.261Z,24.50
2018-07-14T10:30:19.452Z,24.60
2018-07-14T10:32:47.670Z,24.60
2018-07-14T10:35:15.812Z,24.80
2018-07-14T10:37:43.985Z,24.80
2018-07-14T10:40:12.127Z,25.00
2018-07-14T10:42:40.266Z,25.00
2018-07-14T10:45:08.413Z,25.00
2018-07-14T10:47:36.570Z,25.00
2018-07-14T10:50:04.978Z,25.10
2018-07-14T10:52:33.117Z,25.20
2018-07-14T10:55:01.459Z,25.20
2018-07-14T10:57:29.620Z,25.30
2018-07-14T10:59:57.764Z,25.30
2018-07-14T11:02:25.943Z,25.30
2018-07-14T11:04:54.076Z,25.30
2018-07-14T11:07:22.289Z,25.40
2018-07-14T11:09:50.459Z,25.40
2018-07-14T11:12:18.610Z,25.20
2018-07-14T11:14:47.123Z,25.10
2018-07-14T11:17:15.277Z,25.20
2018-07-14T11:19:43.417Z,25.20
2018-07-14T11:22:11.581Z,25.50
2018-07-14T11:24:39.781Z,25.50
2018-07-14T11:27:07.955Z,25.60
2018-07-14T11:29:36.252Z,25.60
2018-07-14T11:32:04.536Z,25.60
2018-07-14T11:34:32.689Z,25.60
2018-07-14T11:37:00.981Z,25.50
2018-07-14T11:39:29.244Z,25.60
2018-07-14T11:41:57.417Z,25.70
2018-07-14T11:44:25.985Z,25.60
2018-07-14T11:46:54.128Z,25.50
2018-07-14T11:49:22.313Z,25.60
2018-07-14T11:51:50.468Z,25.60
2018-07-14T11:54:18.687Z,25.60
2018-07-14T11:56:46.761Z,25.70
2018-07-14T11:59:14.904Z,25.70
2018-07-14T12:01:43.082Z,25.80
2018-07-14T12:04:11.268Z,26.00
2018-07-14T12:06:39.720Z,26.10
2018-07-14T12:09:07.973Z,26.20
2018-07-14T12:11:36.170Z,26.20
2018-07-14T12:14:04.332Z,26.20
2018-07-14T12:16:32.500Z,26.20
2018-07-14T12:19:00.716Z,26.20
2018-07-14T12:21:28.872Z,26.30
2018-07-14T12:23:57.041Z,26.20
2018-07-14T12:26:25.232Z,26.00
2018-07-14T12:28:53.401Z,26.10
2018-07-14T12:31:21.524Z,26.00
2018-07-14T12:33:49.688Z,26.00
2018-07-14T12:36:17.869Z,26.10
2018-07-14T12:38:46.012Z,26.60
2018-07-14T12:41:14.374Z,26.70
2018-07-14T12:43:42.560Z,26.60
2018-07-14T12:46:10.736Z,26.50
2018-07-14T12:48:38.879Z,26.60
2018-07-14T12:51:07.069Z,26.70
2018-07-14T12:53:35.433Z,26.80
2018-07-14T12:56:03.664Z,26.70
2018-07-14T12:58:31.840Z,26.80
2018-07-14T13:00:59.990Z,26.90
2018-07-14T13:05:56.056Z,27.10
2018-07-14T13:08:24.292Z,27.10
2018-07-14T13:10:52.494Z,27.10
2018-07-14T13:13:20.713Z,27.20
2018-07-14T13:15:48.857Z,27.20
2018-07-14T13:18:17.033Z,27.30
2018-07-14T13:20:45.387Z,27.40
2018-07-14T13:23:13.577Z,27.50
2018-07-14T13:25:41.835Z,27.50
2018-07-14T13:28:09.977Z,27.60
2018-07-14T13:30:38.159Z,27.60
2018-07-14T13:33:06.309Z,27.70
2018-07-14T13:35:34.544Z,27.40
2018-07-14T13:38:02.678Z,27.70
2018-07-14T13:40:30.826Z,27.80
2018-07-14T13:42:58.972Z,27.80
2018-07-14T13:45:27.121Z,27.70
2018-07-14T13:47:55.608Z,27.70
2018-07-14T13:50:24.112Z,27.70
2018-07-14T13:52:52.290Z,27.60
2018-07-14T13:55:20.549Z,27.80
2018-07-14T13:57:48.735Z,27.80
2018-07-14T14:00:16.933Z,28.00
2018-07-14T14:02:45.100Z,28.30
2018-07-14T14:05:13.280Z,28.60
2018-07-14T14:07:41.497Z,29.00
2018-07-14T14:10:09.682Z,29.90
2018-07-14T14:12:37.856Z,30.20
2018-07-14T14:15:06.591Z,30.20
2018-07-14T14:17:35.479Z,30.40
2018-07-14T14:20:03.832Z,30.40
2018-07-14T14:22:31.990Z,30.30
2018-07-14T14:25:00.185Z,30.00
2018-07-14T14:27:28.402Z,30.20
2018-07-14T14:29:56.573Z,30.20
2018-07-14T14:32:24.714Z,30.20
2018-07-14T14:34:52.903Z,30.40
2018-07-14T14:37:21.108Z,30.10
2018-07-14T14:39:49.264Z,30.10
2018-07-14T14:42:17.431Z,30.50
2018-07-14T14:44:46.063Z,30.30
2018-07-14T14:47:14.244Z,30.50
2018-07-14T14:49:42.446Z,30.60
2018-07-14T14:52:10.592Z,30.80
2018-07-14T14:54:38.832Z,30.80
2018-07-14T14:57:07.037Z,30.80
2018-07-14T14:59:35.147Z,31.00
2018-07-14T15:02:03.477Z,31.10
2018-07-14T15:04:31.641Z,31.70
2018-07-14T15:06:59.813Z,31.80
2018-07-14T15:09:28.041Z,32.00
2018-07-14T15:11:56.212Z,32.10
2018-07-14T15:14:24.377Z,32.00
2018-07-14T15:16:52.559Z,32.50
2018-07-14T15:19:20.768Z,31.80
2018-07-14T15:21:48.964Z,31.20
2018-07-14T15:24:17.201Z,30.90
2018-07-14T15:26:45.382Z,31.40
2018-07-14T15:29:13.582Z,32.00
2018-07-14T15:31:41.765Z,32.20
2018-07-14T15:34:09.969Z,31.50
2018-07-14T15:36:38.320Z,31.40
2018-07-14T15:39:07.560Z,31.40
2018-07-14T15:41:35.834Z,31.80
2018-07-14T15:44:03.929Z,32.30
2018-07-14T15:46:32.064Z,33.00
2018-07-14T15:49:00.270Z,33.90
2018-07-14T15:51:28.416Z,34.00
2018-07-14T15:53:56.544Z,33.80
2018-07-14T15:56:24.713Z,34.00
2018-07-14T15:58:53.065Z,34.30
2018-07-14T16:01:21.258Z,34.60
2018-07-14T16:03:49.395Z,34.30
2018-07-14T16:06:19.626Z,32.70
2018-07-14T16:08:47.844Z,32.60
2018-07-14T16:11:15.984Z,34.20
2018-07-14T16:13:44.173Z,34.60
2018-07-14T16:16:12.343Z,34.10
2018-07-14T16:18:40.551Z,34.70
2018-07-14T16:21:08.943Z,35.00
2018-07-14T16:23:37.149Z,34.40
2018-07-14T16:26:05.299Z,34.30
2018-07-14T16:28:33.891Z,34.80
2018-07-14T16:31:02.117Z,35.30
2018-07-14T16:33:30.250Z,35.90
2018-07-14T16:35:58.544Z,35.80
2018-07-14T16:38:26.696Z,36.00
2018-07-14T16:40:54.866Z,36.40
2018-07-14T16:43:23.050Z,36.10
2018-07-14T16:45:51.226Z,35.80
2018-07-14T16:48:19.364Z,35.90
2018-07-14T16:50:47.604Z,35.40
2018-07-14T16:53:16.051Z,35.20
2018-07-14T16:55:44.366Z,35.10
2018-07-14T16:58:12.564Z,35.60
2018-07-14T17:00:40.716Z,35.80
2018-07-14T17:03:08.913Z,35.40
2018-07-14T17:05:37.613Z,35.80
2018-07-14T17:08:05.842Z,35.50
2018-07-14T17:10:33.995Z,35.50
2018-07-14T17:13:02.212Z,35.50
2018-07-14T17:15:30.393Z,35.60
2018-07-14T17:20:33.217Z,35.50
2018-07-14T17:23:01.407Z,35.50
2018-07-14T17:25:29.562Z,35.30
2018-07-14T17:27:57.759Z,34.70
2018-07-14T17:30:26.042Z,34.60
2018-07-14T17:32:54.417Z,34.60
2018-07-14T17:35:22.601Z,33.80
2018-07-14T17:37:50.806Z,33.30
2018-07-14T17:40:18.969Z,30.70
2018-07-14T17:42:47.210Z,30.70
2018-07-14T17:45:15.356Z,30.10
2018-07-14T17:47:43.566Z,29.50
2018-07-14T17:50:11.736Z,29.40
2018-07-14T17:52:39.948Z,29.10
2018-07-14T17:55:08.087Z,28.80
2018-07-14T17:57:37.363Z,28.40
2018-07-14T18:00:05.533Z,28.40
2018-07-14T18:02:33.805Z,28.10
2018-07-14T18:05:02.002Z,28.00
2018-07-14T18:07:30.324Z,27.70
2018-07-14T18:09:58.661Z,27.70
2018-07-14T18:12:26.884Z,27.60
2018-07-14T18:14:55.162Z,27.40
2018-07-14T18:17:23.378Z,27.40
2018-07-14T18:19:51.494Z,27.40
2018-07-14T18:22:19.649Z,27.90
2018-07-14T18:24:48.268Z,28.40
2018-07-14T18:27:16.462Z,28.40
2018-07-14T18:29:44.683Z,27.90
2018-07-14T18:32:12.843Z,27.80
2018-07-14T18:34:41.053Z,27.50
2018-07-14T18:37:09.248Z,27.70
2018-07-14T18:39:37.501Z,27.50
2018-07-14T18:42:05.843Z,27.40
2018-07-14T18:44:34.040Z,27.40
2018-07-14T18:47:02.276Z,27.30
2018-07-14T18:49:30.492Z,27.30
2018-07-14T18:51:58.715Z,27.20
2018-07-14T18:54:26.871Z,27.20
2018-07-14T18:56:55.018Z,27.20
2018-07-14T18:59:23.190Z,27.10
2018-07-14T19:01:51.391Z,27.00
2018-07-14T19:04:19.583Z,27.00
2018-07-14T19:06:47.756Z,27.00
2018-07-14T19:09:16.352Z,27.00
2018-07-14T19:11:44.469Z,27.00
2018-07-14T19:14:12.809Z,26.80
2018-07-14T19:16:40.960Z,26.80
2018-07-14T19:19:09.181Z,26.70
2018-07-14T19:21:37.373Z,26.70
2018-07-14T19:24:05.587Z,26.60
2018-07-14T19:26:33.833Z,26.50
2018-07-14T19:29:01.967Z,26.40
2018-07-14T19:31:30.104Z,26.20
2018-07-14T19:33:58.291Z,26.20
2018-07-14T19:36:26.423Z,26.20
2018-07-14T19:38:54.629Z,26.20
2018-07-14T19:41:22.774Z,26.10
2018-07-14T19:43:50.945Z,26.00
2018-07-14T19:46:19.213Z,25.90
2018-07-14T19:48:47.436Z,25.90
2018-07-14T19:51:15.595Z,25.80
2018-07-14T19:53:43.768Z,25.70
2018-07-14T19:56:11.962Z,25.70
2018-07-14T19:58:40.076Z,25.60
2018-07-14T20:01:08.349Z,25.60
2018-07-14T20:03:36.519Z,25.60
2018-07-14T20:08:32.706Z,25.20
2018-07-14T20:11:00.847Z,24.90
2018-07-14T20:13:29.073Z,24.80
2018-07-14T20:15:57.483Z,24.60
2018-07-14T20:18:25.648Z,24.60
2018-07-14T20:20:53.857Z,24.30
2018-07-14T20:23:22.039Z,24.30
2018-07-14T20:25:50.232Z,24.20
2018-07-14T20:28:18.364Z,24.10
2018-07-14T20:30:46.668Z,24.10
2018-07-14T20:33:14.810Z,23.90
2018-07-14T20:35:43.017Z,23.90
2018-07-14T20:38:11.184Z,23.80
2018-07-14T20:40:39.394Z,23.70
2018-07-14T20:43:07.524Z,23.60
2018-07-14T20:45:35.744Z,23.60
2018-07-14T20:48:04.021Z,23.50
2018-07-14T20:50:32.216Z,23.50
2018-07-14T20:53:00.557Z,23.40
2018-07-14T20:55:28.905Z,23.40
2018-07-14T20:57:57.101Z,23.40
2018-07-14T21:00:25.328Z,23.40
2018-07-14T21:02:53.485Z,23.30
2018-07-14T21:05:21.641Z,23.30
2018-07-14T21:07:49.807Z,23.30
2018-07-14T21:10:17.936Z,23.20
2018-07-14T21:12:46.126Z,23.10
2018-07-14T21:15:14.208Z,23.10
2018-07-14T21:17:42.397Z,23.00
2018-07-14T21:20:10.571Z,23.00
2018-07-14T21:22:38.755Z,22.90
2018-07-14T21:25:06.938Z,22.80
2018-07-14T21:27:35.121Z,22.80
2018-07-14T21:30:03.358Z,22.70
2018-07-14T21:32:31.517Z,22.80
2018-07-14T21:34:59.669Z,22.70
2018-07-14T21:37:27.847Z,22.60
2018-07-14T21:39:56.023Z,22.60
2018-07-14T21:42:24.140Z,22.60
2018-07-14T21:44:52.300Z,22.50
2018-07-14T21:47:20.567Z,22.50
2018-07-14T21:49:48.704Z,22.50
2018-07-14T21:52:16.887Z,22.50
2018-07-14T21:54:45.086Z,22.40
2018-07-14T21:57:13.254Z,22.30
2018-07-14T21:59:41.420Z,22.30
2018-07-14T22:02:09.686Z,22.30
2018-07-14T22:04:37.845Z,22.30
2018-07-14T22:07:06.047Z,22.20
2018-07-14T22:09:34.236Z,22.20
2018-07-14T22:12:02.402Z,22.20
2018-07-14T22:14:30.848Z,22.20
2018-07-14T22:16:59.073Z,22.10
2018-07-14T22:19:27.257Z,22.10
2018-07-14T22:21:55.388Z,22.00
2018-07-14T22:24:23.583Z,22.00
2018-07-14T22:26:51.744Z,21.90
2018-07-14T22:29:19.950Z,21.90
2018-07-14T22:31:48.065Z,21.90
2018-07-14T22:34:16.233Z,21.90
2018-07-14T22:39:12.300Z,21.80
2018-07-14T22:41:43.816Z,21.70
2018-07-14T22:44:11.970Z,21.70
2018-07-14T22:46:40.207Z,21.60
2018-07-14T22:49:08.360Z,21.60
2018-07-14T22:51:36.554Z,21.60
2018-07-14T22:54:04.832Z,21.60
2018-07-14T22:56:33.004Z,21.50
2018-07-14T23:01:29.055Z,21.40
2018-07-14T23:03:57.210Z,21.40
2018-07-14T23:06:25.341Z,21.30
2018-07-14T23:08:53.496Z,21.30
2018-07-14T23:11:21.632Z,21.30
2018-07-14T23:13:49.888Z,21.20
2018-07-14T23:16:18.054Z,21.20
2018-07-14T23:21:14.154Z,21.20
2018-07-14T23:23:42.477Z,21.10
2018-07-14T23:26:10.667Z,21.10
2018-07-14T23:28:38.837Z,21.00
2018-07-14T23:31:07.026Z,21.00
2018-07-14T23:33:35.175Z,21.00
2018-07-14T23:36:03.305Z,21.00
2018-07-14T23:38:31.500Z,20.90
2018-07-14T23:40:59.640Z,20.90
2018-07-14T23:43:27.817Z,20.80
2018-07-14T23:45:55.961Z,20.90
2018-07-14T23:48:24.136Z,20.80
2018-07-14T23:50:52.279Z,20.80
2018-07-14T23:53:20.483Z,20.80
2018-07-14T23:55:48.653Z,20.80
2018-07-14T23:58:16.800Z,20.70
